createdAt,value
2023-02-14T00:00:12.798Z,7.05
2023-02-14T00:02:39.367Z,7.01
2023-02-14T00:05:06.063Z,7.05
2023-02-14T00:07:32.415Z,7.07
2023-02-14T00:09:58.834Z,7.03
2023-02-14T00:12:25.300Z,6.99
2023-02-14T00:14:51.708Z,6.86
2023-02-14T00:17:18.207Z,6.84
2023-02-14T00:19:44.679Z,6.92
2023-02-14T00:22:11.144Z,6.97
2023-02-14T00:24:37.550Z,6.96
2023-02-14T00:27:03.963Z,6.96
2023-02-14T00:29:30.319Z,6.96
2023-02-14T00:31:56.895Z,6.97
2023-02-14T00:34:23.310Z,6.98
2023-02-14T00:36:49.717Z,6.90
2023-02-14T00:39:16.133Z,6.89
2023-02-14T00:41:42.559Z,6.91
2023-02-14T00:44:08.901Z,6.93
2023-02-14T00:46:35.341Z,6.93
2023-02-14T00:49:01.725Z,6.94
2023-02-14T00:51:28.088Z,6.91
2023-02-14T00:53:54.653Z,6.90
2023-02-14T00:56:21.031Z,6.88
2023-02-14T00:58:47.619Z,6.86
2023-02-14T01:01:17.113Z,6.85
2023-02-14T01:03:43.625Z,6.82
2023-02-14T01:06:10.056Z,6.82
2023-02-14T01:08:36.442Z,6.84
2023-02-14T01:11:02.872Z,6.83
2023-02-14T01:13:29.231Z,6.82
2023-02-14T01:15:55.638Z,6.77
2023-02-14T01:18:22.020Z,6.79
2023-02-14T01:20:48.566Z,6.75
2023-02-14T01:23:14.956Z,6.72
2023-02-14T01:25:41.430Z,6.73
2023-02-14T01:28:08.032Z,6.70
2023-02-14T01:30:34.440Z,6.69
2023-02-14T01:33:00.882Z,6.67
2023-02-14T01:35:27.323Z,6.64
2023-02-14T01:37:53.748Z,6.66
2023-02-14T01:40:20.158Z,6.62
2023-02-14T01:42:46.704Z,6.64
2023-02-14T01:45:13.145Z,6.63
2023-02-14T01:47:39.589Z,6.65
2023-02-14T01:50:06.031Z,6.66
2023-02-14T01:52:32.420Z,6.63
2023-02-14T01:54:58.781Z,6.63
2023-02-14T01:57:25.237Z,6.62
2023-02-14T01:59:51.611Z,6.60
2023-02-14T02:02:18.091Z,6.61
2023-02-14T02:04:44.566Z,6.60
2023-02-14T02:07:11.034Z,6.59
2023-02-14T02:09:37.501Z,6.54
2023-02-14T02:12:03.932Z,6.55
2023-02-14T02:14:30.452Z,6.37
2023-02-14T02:16:56.951Z,6.39
2023-02-14T02:19:23.420Z,6.42
2023-02-14T02:21:49.785Z,6.43
2023-02-14T02:24:16.190Z,6.48
2023-02-14T02:26:42.551Z,6.49
2023-02-14T02:29:08.954Z,6.45
2023-02-14T02:31:35.443Z,6.41
2023-02-14T02:34:01.950Z,6.41
2023-02-14T02:36:28.458Z,6.40
2023-02-14T02:38:54.881Z,6.43
2023-02-14T02:41:21.367Z,6.46
2023-02-14T02:43:47.752Z,6.45
2023-02-14T02:46:14.178Z,6.47
2023-02-14T02:48:40.592Z,6.46
2023-02-14T02:51:07.662Z,6.46
2023-02-14T02:53:34.117Z,6.39
2023-02-14T02:56:00.570Z,6.39
2023-02-14T02:58:27.020Z,6.44
2023-02-14T03:00:53.534Z,6.43
2023-02-14T03:03:19.953Z,6.44
2023-02-14T03:05:46.354Z,6.44
2023-02-14T03:08:12.835Z,6.39
2023-02-14T03:10:39.350Z,6.37
2023-02-14T03:13:06.829Z,6.38
2023-02-14T03:15:33.278Z,6.37
2023-02-14T03:17:59.730Z,6.36
2023-02-14T03:20:26.123Z,6.35
2023-02-14T03:22:52.462Z,6.36
2023-02-14T03:25:18.982Z,6.33
2023-02-14T03:27:45.404Z,6.29
2023-02-14T03:30:11.916Z,6.28
2023-02-14T03:32:38.468Z,6.29
2023-02-14T03:35:04.969Z,6.31
2023-02-14T03:37:31.385Z,6.31
2023-02-14T03:39:57.836Z,6.23
2023-02-14T03:42:24.189Z,6.23
2023-02-14T03:44:50.676Z,6.23
2023-02-14T03:47:17.136Z,6.23
2023-02-14T03:49:43.537Z,6.25
2023-02-14T03:52:10.237Z,6.27
2023-02-14T03:54:36.697Z,6.28
2023-02-14T03:57:03.227Z,6.28
2023-02-14T03:59:29.661Z,6.30
2023-02-14T04:01:56.149Z,6.30
2023-02-14T04:04:22.639Z,6.31
2023-02-14T04:06:49.073Z,6.26
2023-02-14T04:09:15.517Z,6.23
2023-02-14T04:11:42.034Z,6.21
2023-02-14T04:14:08.475Z,6.21
2023-02-14T04:16:34.865Z,6.22
2023-02-14T04:19:01.239Z,6.25
2023-02-14T04:21:27.677Z,6.29
2023-02-14T04:23:54.230Z,6.31
2023-02-14T04:26:22.673Z,6.28
2023-02-14T04:28:49.025Z,6.22
2023-02-14T04:31:15.479Z,6.21
2023-02-14T04:33:41.893Z,6.19
2023-02-14T04:36:08.301Z,6.20
2023-02-14T04:38:34.689Z,6.23
2023-02-14T04:41:03.247Z,6.21
2023-02-14T04:43:29.709Z,6.20
2023-02-14T04:45:56.155Z,6.20
2023-02-14T04:48:22.551Z,6.19
2023-02-14T04:50:49.006Z,6.18
2023-02-14T04:53:15.472Z,6.09
2023-02-14T04:55:41.950Z,6.08
2023-02-14T04:58:08.361Z,6.07
2023-02-14T05:00:34.832Z,6.08
2023-02-14T05:03:01.230Z,6.08
2023-02-14T05:05:27.603Z,6.06
2023-02-14T05:07:54.008Z,6.06
2023-02-14T05:10:20.406Z,5.96
2023-02-14T05:12:47.014Z,5.93
2023-02-14T05:15:13.617Z,5.97
2023-02-14T05:17:40.042Z,6.03
2023-02-14T05:20:06.445Z,6.08
2023-02-14T05:22:32.913Z,6.09
2023-02-14T05:24:59.339Z,6.11
2023-02-14T05:27:25.757Z,6.09
2023-02-14T05:29:52.141Z,6.08
2023-02-14T05:32:18.547Z,6.04
2023-02-14T05:34:44.950Z,6.00
2023-02-14T05:37:11.339Z,5.98
2023-02-14T05:39:37.799Z,6.00
2023-02-14T05:42:05.462Z,5.98
2023-02-14T05:44:31.835Z,5.94
2023-02-14T05:46:58.213Z,5.96
2023-02-14T05:49:24.683Z,5.96
2023-02-14T05:51:51.115Z,5.95
2023-02-14T05:54:17.501Z,5.94
2023-02-14T05:56:43.876Z,5.94
2023-02-14T05:59:10.376Z,5.94
2023-02-14T06:01:36.785Z,5.93
2023-02-14T06:04:03.306Z,5.93
2023-02-14T06:06:29.746Z,5.91
2023-02-14T06:08:56.223Z,5.88
2023-02-14T06:11:22.656Z,5.87
2023-02-14T06:13:51.074Z,5.85
2023-02-14T06:16:17.498Z,5.81
2023-02-14T06:18:43.944Z,5.81
2023-02-14T06:21:10.331Z,5.75
2023-02-14T06:23:36.688Z,5.78
2023-02-14T06:26:03.117Z,5.74
2023-02-14T06:28:29.545Z,5.74
2023-02-14T06:30:55.996Z,5.74
2023-02-14T06:33:22.494Z,5.72
2023-02-14T06:35:48.972Z,5.73
2023-02-14T06:38:15.368Z,5.70
2023-02-14T06:40:41.888Z,5.69
2023-02-14T06:43:09.282Z,5.64
2023-02-14T06:45:35.729Z,5.52
2023-02-14T06:48:06.701Z,5.60
2023-02-14T06:50:35.328Z,5.70
2023-02-14T06:53:02.030Z,5.68
2023-02-14T06:55:28.497Z,5.65
2023-02-14T06:57:55.008Z,5.63
2023-02-14T07:00:21.458Z,5.67
2023-02-14T07:02:49.183Z,5.72
2023-02-14T07:05:15.622Z,5.71
2023-02-14T07:07:42.112Z,5.72
2023-02-14T07:10:08.522Z,5.72
2023-02-14T07:12:34.961Z,5.75
2023-02-14T07:15:01.495Z,5.75
2023-02-14T07:17:27.935Z,5.79
2023-02-14T07:19:54.412Z,5.73
2023-02-14T07:22:20.873Z,5.71
2023-02-14T07:24:47.297Z,5.70
2023-02-14T07:27:23.887Z,5.71
2023-02-14T07:29:50.328Z,5.67
2023-02-14T07:32:17.831Z,5.69
2023-02-14T07:34:44.330Z,5.72
2023-02-14T07:37:10.715Z,5.76
2023-02-14T07:39:37.308Z,5.85
2023-02-14T07:42:03.761Z,5.83
2023-02-14T07:44:30.399Z,5.85
2023-02-14T07:46:56.925Z,5.91
2023-02-14T07:49:23.377Z,5.93
2023-02-14T07:51:49.813Z,5.92
2023-02-14T07:54:16.285Z,5.92
2023-02-14T07:56:42.917Z,5.92
2023-02-14T07:59:09.302Z,5.90
2023-02-14T08:01:42.940Z,5.90
2023-02-14T08:04:09.362Z,5.94
2023-02-14T08:06:35.823Z,5.93
2023-02-14T08:09:05.275Z,5.73
2023-02-14T08:11:33.500Z,5.73
2023-02-14T08:14:00.101Z,5.68
2023-02-14T08:16:26.717Z,5.79
2023-02-14T08:18:53.263Z,5.85
2023-02-14T08:21:19.793Z,5.90
2023-02-14T08:23:47.620Z,5.94
2023-02-14T08:26:14.149Z,6.00
2023-02-14T08:28:40.597Z,6.02
2023-02-14T08:31:07.109Z,6.04
2023-02-14T08:33:33.671Z,6.04
2023-02-14T08:36:00.193Z,6.03
2023-02-14T08:38:26.742Z,6.04
2023-02-14T08:40:57.119Z,6.04
2023-02-14T08:43:23.684Z,6.04
2023-02-14T08:45:52.281Z,6.04
2023-02-14T08:48:18.864Z,6.05
2023-02-14T08:50:45.370Z,6.03
2023-02-14T08:53:11.850Z,6.02
2023-02-14T08:55:38.338Z,6.02
2023-02-14T08:58:04.825Z,6.06
2023-02-14T09:00:31.651Z,6.06
2023-02-14T09:02:58.197Z,6.08
2023-02-14T09:05:24.717Z,6.12
2023-02-14T09:07:51.527Z,6.16
2023-02-14T09:10:18.168Z,6.21
2023-02-14T09:12:44.725Z,6.25
2023-02-14T09:15:11.391Z,6.30
2023-02-14T09:17:37.926Z,6.33
2023-02-14T09:20:04.416Z,6.36
2023-02-14T09:22:30.959Z,6.38
2023-02-14T09:24:57.484Z,6.41
2023-02-14T09:27:23.987Z,6.43
2023-02-14T09:29:50.491Z,6.48
2023-02-14T09:32:17.034Z,6.55
2023-02-14T09:34:45.786Z,6.62
2023-02-14T09:37:12.308Z,6.65
2023-02-14T09:39:38.830Z,6.68
2023-02-14T09:42:05.377Z,6.67
2023-02-14T09:44:31.879Z,6.72
2023-02-14T09:46:58.336Z,6.71
2023-02-14T09:49:24.967Z,6.77
2023-02-14T09:51:51.636Z,6.79
2023-02-14T09:54:18.178Z,6.71
2023-02-14T09:56:51.210Z,6.72
2023-02-14T09:59:18.332Z,6.75
2023-02-14T10:01:44.972Z,6.76
2023-02-14T10:04:11.527Z,6.75
2023-02-14T10:06:38.049Z,6.75
2023-02-14T10:09:05.437Z,6.82
2023-02-14T10:11:31.850Z,6.84
2023-02-14T10:13:58.401Z,6.86
2023-02-14T10:16:26.872Z,6.87
2023-02-14T10:18:53.862Z,6.87
2023-02-14T10:21:21.335Z,6.88
2023-02-14T10:23:47.990Z,6.85
2023-02-14T10:26:14.452Z,6.84
2023-02-14T10:28:41.037Z,6.89
2023-02-14T10:31:13.786Z,6.89
2023-02-14T10:33:40.260Z,6.91
2023-02-14T10:36:06.800Z,6.96
2023-02-14T10:38:33.272Z,6.97
2023-02-14T10:40:59.982Z,6.98
2023-02-14T10:43:26.665Z,7.03
2023-02-14T10:45:53.145Z,7.00
2023-02-14T10:48:19.808Z,7.02
2023-02-14T10:50:46.465Z,6.97
2023-02-14T10:53:12.998Z,6.93
2023-02-14T10:55:41.551Z,6.93
2023-02-14T10:58:08.204Z,7.02
2023-02-14T11:00:34.773Z,7.06
2023-02-14T11:03:01.328Z,7.04
2023-02-14T11:05:27.884Z,7.01
2023-02-14T11:07:54.395Z,7.00
2023-02-14T11:10:20.947Z,6.90
2023-02-14T11:12:47.909Z,7.01
2023-02-14T11:15:14.382Z,7.02
2023-02-14T11:17:40.970Z,7.16
2023-02-14T11:22:47.824Z,7.18
2023-02-14T11:25:14.339Z,7.16
2023-02-14T11:27:40.833Z,7.11
2023-02-14T11:30:07.354Z,7.09
2023-02-14T11:32:33.800Z,7.19
2023-02-14T11:35:00.289Z,7.16
2023-02-14T11:37:26.828Z,7.20
2023-02-14T11:39:53.322Z,7.29
2023-02-14T11:42:19.764Z,7.26
2023-02-14T11:44:46.367Z,7.33
2023-02-14T11:47:12.899Z,7.39
2023-02-14T11:49:39.548Z,7.40
2023-02-14T11:52:06.054Z,7.33
2023-02-14T11:54:32.561Z,7.31
2023-02-14T11:56:58.983Z,7.39
2023-02-14T11:59:26.527Z,7.33
2023-02-14T12:01:53.102Z,7.36
2023-02-14T12:04:19.669Z,7.35
2023-02-14T12:06:46.150Z,7.37
2023-02-14T12:09:12.797Z,7.34
2023-02-14T12:14:29.892Z,7.35
2023-02-14T12:16:56.381Z,7.38
2023-02-14T12:19:22.849Z,7.30
2023-02-14T12:21:49.290Z,7.34
2023-02-14T12:24:15.906Z,7.34
2023-02-14T12:26:42.538Z,7.33
2023-02-14T12:29:09.048Z,7.42
2023-02-14T12:31:35.570Z,7.38
2023-02-14T12:34:02.101Z,7.44
2023-02-14T12:36:28.569Z,7.42
2023-02-14T12:38:55.089Z,7.43
2023-02-14T12:41:22.955Z,7.53
2023-02-14T12:43:49.482Z,7.55
2023-02-14T12:46:15.952Z,7.55
2023-02-14T12:48:42.412Z,7.53
2023-02-14T12:51:08.803Z,7.54
2023-02-14T12:53:35.217Z,7.55
2023-02-14T12:56:01.755Z,7.56
2023-02-14T12:58:28.114Z,7.61
2023-02-14T13:03:44.813Z,7.63
2023-02-14T13:06:13.110Z,7.68
2023-02-14T13:08:39.617Z,7.75
2023-02-14T13:11:06.405Z,7.80
2023-02-14T13:13:33.221Z,7.77
2023-02-14T13:15:59.792Z,7.86
2023-02-14T13:18:26.696Z,7.86
2023-02-14T13:20:53.692Z,7.90
2023-02-14T13:23:20.162Z,7.90
2023-02-14T13:25:46.661Z,7.88
2023-02-14T13:28:13.080Z,7.92
2023-02-14T13:30:39.730Z,7.94
2023-02-14T13:33:06.222Z,7.97
2023-02-14T13:35:32.676Z,7.95
2023-02-14T13:37:59.132Z,7.95
2023-02-14T13:40:25.587Z,7.99
2023-02-14T13:42:52.090Z,7.94
2023-02-14T13:45:18.544Z,7.94
2023-02-14T13:47:45.041Z,7.98
2023-02-14T13:53:01.748Z,8.03
2023-02-14T13:55:28.430Z,8.02
2023-02-14T13:57:54.934Z,8.01
2023-02-14T14:00:21.371Z,8.10
2023-02-14T14:02:47.909Z,8.17
2023-02-14T14:05:15.468Z,8.17
2023-02-14T14:07:42.569Z,8.21
2023-02-14T14:10:09.032Z,8.23
2023-02-14T14:12:35.525Z,8.16
2023-02-14T14:15:02.049Z,8.21
2023-02-14T14:17:37.544Z,8.19
2023-02-14T14:20:05.115Z,8.20
2023-02-14T14:22:31.619Z,8.24
2023-02-14T14:24:58.086Z,8.22
2023-02-14T14:27:24.630Z,8.21
2023-02-14T14:29:53.040Z,8.19
2023-02-14T14:32:19.528Z,8.31
2023-02-14T14:34:47.000Z,8.31
2023-02-14T14:37:13.392Z,8.31
2023-02-14T14:39:39.854Z,8.42
2023-02-14T14:42:07.033Z,8.43
2023-02-14T14:44:33.607Z,8.40
2023-02-14T14:47:00.193Z,8.41
2023-02-14T14:49:26.571Z,8.50
2023-02-14T14:51:53.027Z,8.53
2023-02-14T14:54:19.442Z,8.54
2023-02-14T14:56:45.810Z,8.52
2023-02-14T14:59:12.214Z,8.58
2023-02-14T15:01:38.633Z,8.59
2023-02-14T15:04:05.054Z,8.61
2023-02-14T15:06:40.357Z,8.69
2023-02-14T15:09:06.833Z,8.72
2023-02-14T15:11:33.209Z,8.80
2023-02-14T15:13:59.700Z,8.86
2023-02-14T15:16:26.159Z,8.90
2023-02-14T15:18:52.706Z,8.92
2023-02-14T15:21:23.464Z,8.96
2023-02-14T15:26:35.844Z,8.87
2023-02-14T15:29:07.182Z,8.90
2023-02-14T15:31:33.656Z,8.87
2023-02-14T15:34:00.267Z,8.89
2023-02-14T15:36:26.676Z,8.93
2023-02-14T15:38:53.139Z,8.96
2023-02-14T15:41:19.586Z,8.99
2023-02-14T15:43:46.197Z,9.01
2023-02-14T15:46:12.759Z,9.02
2023-02-14T15:48:39.246Z,9.04
2023-02-14T15:51:05.880Z,9.06
2023-02-14T15:53:32.379Z,9.05
2023-02-14T15:55:58.849Z,9.08
2023-02-14T15:58:26.292Z,9.09
2023-02-14T16:00:52.633Z,9.11
2023-02-14T16:03:19.650Z,9.11
2023-02-14T16:05:49.773Z,9.13
2023-02-14T16:08:16.307Z,9.15
2023-02-14T16:10:42.703Z,9.14
2023-02-14T16:13:09.261Z,9.13
2023-02-14T16:15:35.819Z,9.12
2023-02-14T16:18:02.249Z,9.13
2023-02-14T16:20:28.730Z,9.14
2023-02-14T16:22:55.267Z,9.10
2023-02-14T16:25:21.752Z,9.07
2023-02-14T16:27:48.269Z,9.05
2023-02-14T16:30:14.795Z,9.01
2023-02-14T16:32:41.340Z,8.98
2023-02-14T16:35:07.809Z,9.02
2023-02-14T16:37:34.392Z,9.06
2023-02-14T16:40:00.906Z,8.93
2023-02-14T16:42:27.451Z,8.95
2023-02-14T16:44:53.976Z,8.96
2023-02-14T16:47:20.570Z,8.97
2023-02-14T16:49:47.062Z,9.00
2023-02-14T16:52:13.497Z,9.00
2023-02-14T16:57:20.304Z,8.99
2023-02-14T16:59:46.723Z,8.98
2023-02-14T17:02:13.148Z,8.96
2023-02-14T17:04:39.598Z,8.97
2023-02-14T17:07:06.059Z,8.96
2023-02-14T17:09:32.430Z,8.99
2023-02-14T17:11:58.915Z,9.02
2023-02-14T17:14:25.631Z,9.00
2023-02-14T17:16:56.582Z,9.00
2023-02-14T17:19:23.000Z,9.00
2023-02-14T17:21:49.480Z,8.97
2023-02-14T17:24:15.979Z,8.95
2023-02-14T17:26:42.450Z,8.92
2023-02-14T17:29:08.862Z,8.89
2023-02-14T17:31:35.500Z,8.86
2023-02-14T17:34:01.953Z,8.83
2023-02-14T17:36:28.431Z,8.78
2023-02-14T17:38:54.913Z,8.74
2023-02-14T17:41:26.974Z,8.70
2023-02-14T17:43:53.371Z,8.69
2023-02-14T17:46:19.838Z,8.63
2023-02-14T17:48:46.230Z,8.61
2023-02-14T17:54:03.183Z,8.57
2023-02-14T17:56:29.639Z,8.59
2023-02-14T17:58:56.239Z,8.61
2023-02-14T18:01:22.767Z,8.59
2023-02-14T18:03:49.290Z,8.55
2023-02-14T18:06:15.769Z,8.54
2023-02-14T18:08:42.265Z,8.53
2023-02-14T18:11:08.722Z,8.54
2023-02-14T18:13:35.151Z,8.53
2023-02-14T18:16:01.599Z,8.49
2023-02-14T18:18:35.294Z,8.50
2023-02-14T18:21:02.141Z,8.53
2023-02-14T18:23:28.835Z,8.53
2023-02-14T18:25:55.715Z,8.53
2023-02-14T18:28:24.013Z,8.55
2023-02-14T18:30:53.512Z,8.59
2023-02-14T18:33:24.122Z,8.57
2023-02-14T18:35:51.961Z,8.57
2023-02-14T18:38:21.406Z,8.49
2023-02-14T18:40:47.860Z,8.39
2023-02-14T18:43:16.772Z,8.39
2023-02-14T18:45:43.280Z,8.50
2023-02-14T18:48:09.711Z,8.56
2023-02-14T18:50:36.175Z,8.60
2023-02-14T18:53:02.723Z,8.65
2023-02-14T18:55:34.414Z,8.64
2023-02-14T18:58:00.907Z,8.64
2023-02-14T19:00:33.242Z,8.55
2023-02-14T19:02:59.785Z,8.49
2023-02-14T19:05:26.295Z,8.59
2023-02-14T19:07:52.699Z,8.60
2023-02-14T19:10:19.172Z,8.59
2023-02-14T19:12:45.639Z,8.56
2023-02-14T19:15:12.076Z,8.55
2023-02-14T19:17:38.504Z,8.52
2023-02-14T19:20:04.919Z,8.49
2023-02-14T19:22:31.562Z,8.44
2023-02-14T19:24:58.006Z,8.41
2023-02-14T19:27:32.078Z,8.34
2023-02-14T19:29:59.407Z,8.35
2023-02-14T19:32:25.797Z,8.32
2023-02-14T19:34:52.564Z,8.33
2023-02-14T19:37:19.039Z,8.31
2023-02-14T19:39:45.428Z,8.28
2023-02-14T19:42:14.023Z,8.24
2023-02-14T19:44:40.448Z,8.21
2023-02-14T19:47:23.335Z,8.18
2023-02-14T19:49:50.037Z,8.17
2023-02-14T19:52:25.817Z,8.15
2023-02-14T19:54:53.142Z,8.11
2023-02-14T19:57:19.604Z,8.12
2023-02-14T19:59:46.164Z,8.08
2023-02-14T20:02:12.615Z,8.04
2023-02-14T20:04:39.066Z,8.07
2023-02-14T20:07:05.534Z,8.10
2023-02-14T20:09:31.972Z,8.12
2023-02-14T20:11:58.503Z,8.12
2023-02-14T20:14:24.918Z,8.17
2023-02-14T20:16:51.471Z,8.16
2023-02-14T20:19:18.001Z,8.15
2023-02-14T20:21:44.424Z,8.15
2023-02-14T20:24:10.950Z,8.18
2023-02-14T20:26:39.860Z,8.18
2023-02-14T20:29:06.390Z,8.14
2023-02-14T20:31:33.040Z,8.12
2023-02-14T20:33:59.576Z,8.11
2023-02-14T20:36:25.976Z,8.09
2023-02-14T20:38:53.128Z,7.92
2023-02-14T20:41:19.643Z,7.95
2023-02-14T20:43:46.271Z,8.04
2023-02-14T20:46:13.819Z,8.14
2023-02-14T20:48:47.690Z,8.17
2023-02-14T20:51:16.423Z,8.22
2023-02-14T20:53:47.573Z,8.27
2023-02-14T20:56:14.010Z,8.31
2023-02-14T20:58:40.446Z,8.29
2023-02-14T21:01:07.061Z,8.30
2023-02-14T21:03:33.546Z,8.35
2023-02-14T21:06:00.016Z,8.35
2023-02-14T21:08:27.536Z,8.38
2023-02-14T21:10:53.918Z,8.35
2023-02-14T21:13:20.418Z,8.38
2023-02-14T21:15:46.957Z,8.31
2023-02-14T21:18:14.041Z,8.24
2023-02-14T21:20:40.446Z,8.26
2023-02-14T21:23:06.850Z,8.26
2023-02-14T21:25:33.327Z,8.24
2023-02-14T21:27:59.743Z,8.25
2023-02-14T21:30:26.305Z,8.23
2023-02-14T21:32:52.828Z,8.18
2023-02-14T21:35:23.404Z,8.15
2023-02-14T21:37:52.329Z,8.06
2023-02-14T21:40:18.881Z,8.02
2023-02-14T21:42:46.522Z,8.01
2023-02-14T21:45:13.030Z,7.92
2023-02-14T21:47:39.486Z,7.93
2023-02-14T21:50:06.251Z,7.98
2023-02-14T21:52:32.713Z,8.00
2023-02-14T21:54:59.126Z,8.01
2023-02-14T21:57:25.594Z,7.96
2023-02-14T21:59:51.982Z,8.01
2023-02-14T22:02:18.527Z,8.02
2023-02-14T22:04:45.927Z,8.02
2023-02-14T22:07:12.351Z,8.01
2023-02-14T22:09:38.795Z,7.99
2023-02-14T22:12:05.276Z,8.05
2023-02-14T22:14:31.739Z,8.04
2023-02-14T22:16:58.180Z,8.02
2023-02-14T22:19:24.651Z,7.99
2023-02-14T22:21:51.139Z,7.95
2023-02-14T22:24:17.611Z,7.91
2023-02-14T22:26:44.041Z,7.90
2023-02-14T22:29:10.536Z,7.91
2023-02-14T22:31:37.047Z,7.92
2023-02-14T22:34:03.563Z,7.92
2023-02-14T22:36:29.974Z,7.90
2023-02-14T22:38:56.353Z,7.91
2023-02-14T22:41:22.728Z,7.96
2023-02-14T22:43:49.163Z,8.00
2023-02-14T22:46:23.097Z,7.97
2023-02-14T22:48:49.527Z,7.96
2023-02-14T22:51:15.962Z,7.94
2023-02-14T22:53:42.332Z,7.98
2023-02-14T22:56:08.830Z,7.96
2023-02-14T22:58:35.968Z,7.91
2023-02-14T23:01:02.330Z,7.89
2023-02-14T23:03:28.707Z,7.91
2023-02-14T23:05:55.101Z,7.82
2023-02-14T23:08:21.534Z,7.84
2023-02-14T23:10:47.995Z,7.86
2023-02-14T23:13:16.573Z,7.85
2023-02-14T23:15:42.985Z,7.85
2023-02-14T23:18:09.337Z,7.82
2023-02-14T23:20:36.174Z,7.81
2023-02-14T23:23:02.996Z,7.77
2023-02-14T23:25:30.740Z,7.79
2023-02-14T23:28:04.804Z,7.78
2023-02-14T23:30:31.208Z,7.77
2023-02-14T23:33:01.436Z,7.74
2023-02-14T23:35:27.844Z,7.58
2023-02-14T23:40:34.750Z,7.63
2023-02-14T23:43:01.216Z,7.64
2023-02-14T23:48:07.918Z,7.69
2023-02-14T23:50:34.410Z,7.71
2023-02-14T23:53:00.966Z,7.68
2023-02-14T23:55:27.353Z,7.62
2023-02-14T23:57:53.826Z,7.61
